Time;durP1;ratioP1;P1;durP2;ratioP2;P2;SDS_P1;SDS_P2;PMS_P1;PMS_P2;Temp;Humidity;BMP_temperature;BMP_pressure;BME280_temperature;BME280_humidity;BME280_pressure;Samples;Min_cycle;Max_cycle;Signal;HPM_P1;HPM_P2
2022/11/10 00:01:02;;;;;;;8.80;1.70;;;;;;;12.27;74.90;100804.23;103719;1302;71313;-74
2022/11/10 00:03:29;;;;;;;4.70;1.40;;;;;;;12.25;74.98;100810.28;103014;1296;71862;-76
2022/11/10 00:05:56;;;;;;;5.60;1.60;;;;;;;12.21;75.15;100813.34;103589;1300;63080;-76
2022/11/10 00:08:22;;;;;;;7.20;1.70;;;;;;;12.19;75.23;100813.80;103541;1302;61274;-75
2022/11/10 00:10:58;;;;;;;5.80;1.90;;;;;;;12.16;75.46;100819.15;103569;1304;61403;-78
2022/11/10 00:13:34;;;;;;;9.20;2.00;;;;;;;12.11;75.66;100821.66;103174;1304;69754;-77
2022/11/10 00:18:48;;;;;;;8.00;2.10;;;;;;;11.99;76.02;100826.59;103980;1293;61299;-75
2022/11/10 00:21:17;;;;;;;5.70;1.90;;;;;;;11.92;76.49;100829.22;103090;1303;61632;-76
2022/11/10 00:23:46;;;;;;;8.10;2.60;;;;;;;11.85;76.51;100825.59;102930;1295;73113;-76
2022/11/10 00:26:18;;;;;;;5.30;1.80;;;;;;;11.79;76.84;100835.29;104111;1295;68963;-76
2022/11/10 00:28:45;;;;;;;8.00;2.10;;;;;;;11.72;77.07;100840.20;104044;1302;73298;-76
2022/11/10 00:31:12;;;;;;;7.20;1.70;;;;;;;11.67;77.36;100845.45;102719;1298;62791;-75
2022/11/10 00:33:40;;;;;;;7.20;2.20;;;;;;;11.64;77.53;100847.41;103293;1302;61321;-76
2022/11/10 00:36:07;;;;;;;6.80;2.20;;;;;;;11.60;77.76;100852.02;103879;1305;74510;-76
2022/11/10 00:38:33;;;;;;;6.60;2.00;;;;;;;11.56;77.81;100854.64;103458;1292;69067;-78
2022/11/10 00:41:00;;;;;;;8.10;2.20;;;;;;;11.54;78.07;100856.80;103415;1301;61310;-76
2022/11/10 00:43:28;;;;;;;7.80;2.20;;;;;;;11.52;78.08;100857.27;103046;1291;61433;-77
2022/11/10 00:45:56;;;;;;;7.60;2.20;;;;;;;11.48;78.50;100862.17;104305;1299;59883;-76
2022/11/10 00:48:22;;;;;;;5.60;2.00;;;;;;;11.48;78.53;100859.77;102870;1303;74411;-76
2022/11/10 00:50:49;;;;;;;7.40;2.00;;;;;;;11.47;78.75;100862.08;103385;1301;62873;-76
2022/11/10 00:53:16;;;;;;;7.70;2.40;;;;;;;11.48;78.75;100862.10;104103;1294;71667;-76
2022/11/10 00:55:43;;;;;;;9.40;2.40;;;;;;;11.48;78.78;100866.02;103360;1298;61179;-76
2022/11/10 00:58:09;;;;;;;11.30;2.80;;;;;;;11.51;78.86;100866.10;103033;1299;61336;-77
2022/11/10 01:00:36;;;;;;;6.80;2.10;;;;;;;11.50;78.70;100868.67;103086;1304;73741;-76
2022/11/10 01:03:03;;;;;;;6.70;2.10;;;;;;;11.49;78.72;100875.35;103775;1296;69890;-76
2022/11/10 01:05:29;;;;;;;7.40;2.50;;;;;;;11.46;78.70;100871.61;103691;1295;72424;-76
2022/11/10 01:07:58;;;;;;;8.20;2.60;;;;;;;11.42;78.88;100879.27;103192;1301;61280;-75
2022/11/10 01:10:25;;;;;;;10.50;2.60;;;;;;;11.39;78.93;100881.38;104176;1297;61259;-76
2022/11/10 01:12:53;;;;;;;9.10;2.50;;;;;;;11.33;79.14;100885.47;103377;1306;74640;-77
2022/11/10 01:15:20;;;;;;;9.30;2.60;;;;;;;11.28;79.37;100890.77;103492;1300;69738;-76
2022/11/10 01:17:54;;;;;;;9.20;2.70;;;;;;;11.25;79.66;100892.58;102892;1303;72471;-77
2022/11/10 01:20:21;;;;;;;7.80;2.40;;;;;;;11.23;79.64;100896.08;103361;1310;61757;-77
2022/11/10 01:22:48;;;;;;;6.70;2.20;;;;;;;11.23;79.60;100902.15;103841;1300;61279;-76
2022/11/10 01:25:14;;;;;;;7.50;2.70;;;;;;;11.21;79.99;100901.70;103330;1285;61564;-76
2022/11/10 01:27:41;;;;;;;8.40;2.70;;;;;;;11.19;80.00;100900.83;102928;1301;71176;-76
2022/11/10 01:30:08;;;;;;;7.70;2.90;;;;;;;11.17;80.09;100897.30;103763;1300;61327;-76
2022/11/10 01:32:34;;;;;;;9.70;2.80;;;;;;;11.15;80.29;100900.38;103635;1302;61826;-77
2022/11/10 01:35:01;;;;;;;7.90;2.90;;;;;;;11.13;80.41;100898.88;103256;1300;61302;-76
2022/11/10 01:37:27;;;;;;;8.70;2.90;;;;;;;11.11;80.45;100902.52;103130;1298;61295;-75
2022/11/10 01:39:53;;;;;;;8.60;3.30;;;;;;;11.08;80.51;100905.85;103964;1294;61238;-78
2022/11/10 01:42:39;;;;;;;9.60;3.20;;;;;;;11.04;80.61;100907.30;103757;1303;61258;-77
2022/11/10 01:45:21;;;;;;;8.70;2.90;;;;;;;11.02;80.65;100904.76;103431;1301;61922;-77
2022/11/10 01:48:02;;;;;;;8.70;3.10;;;;;;;10.98;80.92;100908.31;103735;1292;61260;-76
2022/11/10 01:50:32;;;;;;;11.60;3.10;;;;;;;10.95;81.14;100913.20;103581;1304;73216;-76
2022/11/10 01:53:02;;;;;;;8.30;3.40;;;;;;;10.93;81.20;100920.04;103729;1300;70011;-76
2022/11/10 01:55:33;;;;;;;8.80;2.90;;;;;;;10.90;81.30;100921.13;103133;1296;72880;-77
2022/11/10 01:57:59;;;;;;;8.80;3.00;;;;;;;10.86;81.61;100921.36;103521;1305;61766;-76
2022/11/10 02:00:26;;;;;;;8.80;3.20;;;;;;;10.83;81.77;100922.38;103423;1295;61293;-76
2022/11/10 02:03:14;;;;;;;8.10;3.50;;;;;;;10.80;82.09;100926.45;103855;1299;74480;-77
2022/11/10 02:05:45;;;;;;;7.70;3.60;;;;;;;10.77;82.28;100928.33;103075;1301;72051;-76
2022/11/10 02:08:14;;;;;;;10.30;3.20;;;;;;;10.74;82.61;100930.99;103797;1301;71202;-77
2022/11/10 02:10:41;;;;;;;10.00;3.50;;;;;;;10.74;82.54;100930.16;103252;1305;61345;-77
2022/11/10 02:13:09;;;;;;;9.70;3.40;;;;;;;10.72;82.70;100935.63;103210;1302;61397;-75
2022/11/10 02:15:36;;;;;;;8.60;3.50;;;;;;;10.72;82.91;100941.17;102985;1305;74666;-77
2022/11/10 02:18:03;;;;;;;9.70;3.50;;;;;;;10.71;82.97;100945.35;104080;1302;70793;-76
2022/11/10 02:20:29;;;;;;;9.60;3.40;;;;;;;10.70;82.89;100947.50;102966;1304;61386;-77
2022/11/10 02:22:56;;;;;;;8.60;4.00;;;;;;;10.68;83.10;100953.58;102990;1295;62069;-76
2022/11/10 02:25:28;;;;;;;10.40;4.00;;;;;;;10.66;83.15;100951.70;103577;1299;61263;-76
2022/11/10 02:27:55;;;;;;;11.50;4.30;;;;;;;10.65;83.36;100956.44;104130;1301;74351;-77
2022/11/10 02:30:21;;;;;;;12.10;4.60;;;;;;;10.61;83.52;100953.47;103792;1300;61232;-76
2022/11/10 02:32:53;;;;;;;12.20;3.90;;;;;;;10.57;83.88;100955.09;103238;1298;70652;-76
2022/11/10 02:35:19;;;;;;;9.50;3.80;;;;;;;10.56;84.03;100958.48;103051;1304;61312;-76
2022/11/10 02:37:45;;;;;;;12.40;4.40;;;;;;;10.52;84.15;100964.85;104094;1299;60004;-77
2022/11/10 02:40:12;;;;;;;13.00;4.20;;;;;;;10.48;84.58;100962.35;103234;1294;61391;-77
2022/11/10 02:42:38;;;;;;;8.90;4.40;;;;;;;10.44;84.81;100960.45;103426;1300;61387;-77
2022/11/10 02:45:05;;;;;;;7.90;4.10;;;;;;;10.43;84.63;100966.06;102791;1296;62515;-77
2022/11/10 02:47:32;;;;;;;12.70;4.60;;;;;;;10.41;84.74;100967.52;103849;1301;61283;-75
2022/11/10 02:49:58;;;;;;;8.60;4.10;;;;;;;10.38;85.25;100977.58;103444;1302;61408;-77
2022/11/10 02:52:25;;;;;;;9.60;4.20;;;;;;;10.36;84.96;100973.22;103433;1304;61309;-77
2022/11/10 02:54:51;;;;;;;10.60;4.80;;;;;;;10.31;85.27;100982.27;103495;1302;61283;-76
2022/11/10 02:57:17;;;;;;;11.20;4.20;;;;;;;10.27;85.18;100984.59;103844;1294;61408;-77
2022/11/10 02:59:44;;;;;;;8.60;4.70;;;;;;;10.22;85.12;100987.22;103849;1294;61292;-77
2022/11/10 03:02:10;;;;;;;8.70;4.30;;;;;;;10.17;85.52;100986.82;103480;1301;61863;-77
2022/11/10 03:04:37;;;;;;;11.00;4.50;;;;;;;10.12;85.78;100989.33;103696;1306;61180;-77
2022/11/10 03:07:03;;;;;;;13.30;4.70;;;;;;;10.06;86.37;100989.10;103892;1303;61270;-76
2022/11/10 03:09:30;;;;;;;14.00;4.70;;;;;;;10.03;86.84;100988.56;103655;1300;61406;-76
2022/11/10 03:11:56;;;;;;;12.00;5.00;;;;;;;9.98;86.75;100986.02;103936;1289;61818;-77
2022/11/10 03:14:23;;;;;;;13.70;5.50;;;;;;;9.94;86.93;100990.36;104355;1295;61283;-76
2022/11/10 03:16:49;;;;;;;10.90;4.70;;;;;;;9.91;87.40;100988.45;104129;1301;60652;-77
2022/11/10 03:19:16;;;;;;;13.20;5.10;;;;;;;9.87;87.85;100998.34;103543;1296;61350;-77
2022/11/10 03:21:42;;;;;;;10.60;4.70;;;;;;;9.86;88.13;101005.56;103483;1299;62568;-77
2022/11/10 03:24:09;;;;;;;11.20;5.30;;;;;;;9.84;87.99;101007.71;103366;1294;61317;-76
2022/11/10 03:26:35;;;;;;;9.60;4.90;;;;;;;9.82;88.23;101018.34;103930;1297;61406;-76
2022/11/10 03:29:02;;;;;;;16.50;5.80;;;;;;;9.78;88.72;101016.41;103221;1302;61420;-76
2022/11/10 03:31:28;;;;;;;15.10;5.80;;;;;;;9.75;88.83;101013.73;103884;1301;59529;-77
2022/11/10 03:33:55;;;;;;;14.30;5.60;;;;;;;9.74;89.28;101016.54;103218;1302;61291;-75
2022/11/10 03:36:21;;;;;;;9.90;5.10;;;;;;;9.72;89.18;101017.77;103509;1305;61375;-77
2022/11/10 03:38:48;;;;;;;11.70;5.90;;;;;;;9.70;89.54;101025.92;103758;1302;61822;-77
2022/11/10 03:41:14;;;;;;;12.20;5.40;;;;;;;9.70;89.52;101029.27;103064;1302;61276;-76
2022/11/10 03:43:46;;;;;;;12.00;6.40;;;;;;;9.69;89.86;101029.90;103561;1296;71217;-76
2022/11/10 03:46:13;;;;;;;10.40;5.10;;;;;;;9.68;89.61;101029.10;103449;1301;72406;-76
2022/11/10 03:48:40;;;;;;;11.60;5.90;;;;;;;9.66;89.65;101031.09;103960;1304;60446;-76
2022/11/10 03:51:07;;;;;;;11.80;6.00;;;;;;;9.65;89.95;101033.32;102878;1297;62020;-76
2022/11/10 03:53:33;;;;;;;10.80;6.00;;;;;;;9.64;89.73;101038.61;103258;1298;61266;-76
2022/11/10 03:56:01;;;;;;;12.40;6.50;;;;;;;9.61;89.87;101038.34;103710;1303;61394;-77
2022/11/10 03:58:27;;;;;;;10.90;5.90;;;;;;;9.59;89.74;101042.44;103384;1302;72909;-76
2022/11/10 04:00:57;;;;;;;12.10;6.60;;;;;;;9.56;90.11;101048.69;103583;1301;61940;-77
2022/11/10 04:03:24;;;;;;;13.50;6.80;;;;;;;9.54;90.21;101049.14;103433;1303;59627;-77
2022/11/10 04:16:56;;;;;;;15.40;7.10;;;;;;;9.46;91.38;101069.99;103448;1302;61158;-76
2022/11/10 04:19:23;;;;;;;12.60;7.50;;;;;;;9.44;91.64;101073.17;103337;1297;59408;-76
2022/11/10 04:21:49;;;;;;;14.00;7.50;;;;;;;9.43;91.40;101076.23;102695;1298;69661;-76
2022/11/10 04:24:16;;;;;;;14.40;8.30;;;;;;;9.41;91.54;101080.00;103883;1301;72571;-77
2022/11/10 04:26:44;;;;;;;14.40;8.30;;;;;;;9.39;92.06;101075.42;103856;1298;59077;-75
2022/11/10 04:29:11;;;;;;;19.60;8.20;;;;;;;9.37;92.17;101073.98;103034;1297;61194;-76
2022/11/10 04:31:42;;;;;;;14.80;7.50;;;;;;;9.36;92.17;101077.95;103213;1305;74678;-76
2022/11/10 04:34:11;;;;;;;12.60;7.60;;;;;;;9.35;92.21;101084.31;103416;1298;69580;-76
2022/11/10 04:36:40;;;;;;;17.20;8.50;;;;;;;9.34;92.29;101087.57;103456;1297;72880;-77
2022/11/10 04:39:08;;;;;;;18.40;8.40;;;;;;;9.33;92.54;101088.71;103504;1302;61240;-76
2022/11/10 04:41:35;;;;;;;16.50;8.60;;;;;;;9.31;92.32;101094.02;103308;1302;61741;-77
2022/11/10 04:44:02;;;;;;;14.20;8.90;;;;;;;9.31;92.35;101100.90;104335;1295;73720;-77
2022/11/10 04:46:33;;;;;;;19.20;8.60;;;;;;;9.30;92.25;101102.64;103396;1295;69599;-79
2022/11/10 04:49:00;;;;;;;15.90;9.10;;;;;;;9.27;92.32;101104.02;103126;1302;72860;-76
2022/11/10 04:51:33;;;;;;;15.90;9.20;;;;;;;9.26;92.61;101109.20;103235;1302;62287;-76
2022/11/10 04:54:00;;;;;;;16.50;10.00;;;;;;;9.24;92.42;101113.80;103348;1304;61656;-77
2022/11/10 04:56:28;;;;;;;15.90;9.50;;;;;;;9.23;92.28;101118.85;103003;1301;74576;-78
2022/11/10 04:58:54;;;;;;;19.40;10.10;;;;;;;9.21;92.90;101124.88;103635;1297;70551;-77
2022/11/10 05:01:24;;;;;;;14.70;10.20;;;;;;;9.22;93.37;101131.91;103485;1305;72544;-77
2022/11/10 05:03:52;;;;;;;18.70;10.10;;;;;;;9.23;93.54;101130.69;103535;1302;61359;-77
2022/11/10 05:06:19;;;;;;;15.50;9.80;;;;;;;9.24;93.27;101133.11;102955;1301;59965;-77
2022/11/10 05:08:46;;;;;;;16.30;9.50;;;;;;;9.24;93.21;101141.13;103140;1302;73716;-76
2022/11/10 05:11:13;;;;;;;17.00;10.10;;;;;;;9.25;93.48;101148.67;103510;1288;71144;-78
2022/11/10 05:13:40;;;;;;;16.30;9.30;;;;;;;9.26;93.56;101149.65;103811;1304;71075;-77
2022/11/10 05:16:07;;;;;;;17.30;10.00;;;;;;;9.28;93.37;101148.00;103710;1303;60498;-75
2022/11/10 05:18:34;;;;;;;15.90;9.60;;;;;;;9.27;93.00;101155.70;103078;1300;61478;-76
2022/11/10 05:21:01;;;;;;;16.50;9.50;;;;;;;9.27;93.32;101154.45;103789;1301;74592;-77
2022/11/10 05:23:36;;;;;;;17.00;9.60;;;;;;;9.27;93.15;101148.83;103480;1295;61366;-76
2022/11/10 05:26:12;;;;;;;16.30;9.80;;;;;;;9.27;93.24;101147.89;102952;1301;70502;-77
2022/11/10 05:28:41;;;;;;;19.70;9.80;;;;;;;9.26;93.35;101138.30;102950;1289;60027;-76
2022/11/10 05:31:08;;;;;;;19.60;10.50;;;;;;;9.26;93.62;101146.59;103815;1304;61953;-76
2022/11/10 05:33:36;;;;;;;19.20;10.50;;;;;;;9.27;93.53;101156.20;103610;1295;73083;-76
2022/11/10 05:36:04;;;;;;;18.40;10.20;;;;;;;9.28;93.32;101158.79;103077;1297;71929;-76
2022/11/10 05:38:31;;;;;;;20.40;10.60;;;;;;;9.29;93.74;101163.98;103692;1297;70395;-76
2022/11/10 05:40:57;;;;;;;17.00;11.10;;;;;;;9.29;93.69;101165.35;103462;1294;59215;-76
2022/11/10 05:43:24;;;;;;;19.30;10.50;;;;;;;9.31;93.81;101163.25;103447;1304;59168;-77
2022/11/10 05:45:51;;;;;;;21.80;11.20;;;;;;;9.32;93.95;101165.05;102949;1304;74704;-75
2022/11/10 05:48:18;;;;;;;17.60;11.00;;;;;;;9.33;94.09;101171.84;103803;1294;61635;-76
2022/11/10 05:50:44;;;;;;;16.30;10.40;;;;;;;9.35;93.91;101182.73;103613;1301;70511;-77
2022/11/10 05:53:11;;;;;;;19.10;10.80;;;;;;;9.36;94.07;101185.98;102953;1297;61360;-76
2022/11/10 05:55:38;;;;;;;17.60;10.30;;;;;;;9.38;93.96;101191.12;103848;1300;59257;-77
2022/11/10 05:58:04;;;;;;;16.30;10.60;;;;;;;9.38;94.15;101189.31;103310;1288;73375;-74
2022/11/10 06:00:32;;;;;;;15.80;10.30;;;;;;;9.42;94.11;101193.57;103857;1304;69747;-74
2022/11/10 06:03:01;;;;;;;16.80;10.70;;;;;;;9.46;94.26;101201.15;103439;1297;71288;-74
2022/11/10 06:05:30;;;;;;;20.20;11.00;;;;;;;9.49;93.93;101202.96;103990;1298;61277;-72
2022/11/10 06:07:58;;;;;;;21.30;11.00;;;;;;;9.52;93.96;101204.79;103841;1296;61180;-74
2022/11/10 06:10:25;;;;;;;16.50;10.10;;;;;;;9.54;93.96;101205.38;104093;1294;73124;-72
2022/11/10 06:12:52;;;;;;;22.30;10.70;;;;;;;9.57;93.80;101215.71;103446;1304;69133;-72
2022/11/10 06:15:20;;;;;;;20.80;10.90;;;;;;;9.58;93.61;101223.73;103786;1302;72547;-72
2022/11/10 06:17:46;;;;;;;17.30;10.10;;;;;;;9.58;93.51;101227.44;103352;1304;61393;-73
2022/11/10 06:20:16;;;;;;;16.20;10.30;;;;;;;9.58;93.46;101229.52;103428;1297;61401;-73
2022/11/10 06:22:44;;;;;;;18.00;10.50;;;;;;;9.58;93.50;101236.23;103166;1294;72343;-74
2022/11/10 06:25:10;;;;;;;17.20;10.00;;;;;;;9.58;93.88;101242.73;103575;1297;69890;-74
2022/11/10 06:27:37;;;;;;;15.50;10.50;;;;;;;9.59;93.80;101249.20;103813;1302;70932;-74
2022/11/10 06:30:05;;;;;;;18.90;11.20;;;;;;;9.58;93.81;101245.89;103214;1295;61331;-74
2022/11/10 06:32:32;;;;;;;19.40;11.10;;;;;;;9.60;93.73;101246.10;103784;1300;61219;-73
2022/11/10 06:34:59;;;;;;;20.10;11.20;;;;;;;9.62;93.77;101246.77;102958;1302;72553;-73
2022/11/10 06:37:26;;;;;;;20.80;10.70;;;;;;;9.64;93.94;101246.95;103592;1297;70195;-73
2022/11/10 06:39:53;;;;;;;19.90;10.70;;;;;;;9.66;93.68;101250.09;103254;1304;75754;-74
2022/11/10 06:42:19;;;;;;;20.70;10.90;;;;;;;9.66;94.07;101253.06;103137;1294;61977;-74
2022/11/10 06:44:46;;;;;;;20.50;10.70;;;;;;;9.68;93.87;101258.57;103963;1297;61368;-74
2022/11/10 06:47:14;;;;;;;16.20;9.40;;;;;;;9.68;93.85;101258.73;103760;1296;61423;-73
2022/11/10 06:49:40;;;;;;;21.40;10.20;;;;;;;9.69;93.91;101264.11;103945;1285;68820;-73
2022/11/10 06:52:07;;;;;;;19.10;10.90;;;;;;;9.72;93.80;101276.75;103563;1302;61330;-73
2022/11/10 06:54:35;;;;;;;19.70;11.00;;;;;;;9.74;93.81;101290.05;103394;1288;61409;-73
2022/11/10 06:57:02;;;;;;;20.80;11.90;;;;;;;9.77;93.71;101295.26;103839;1298;61459;-73
2022/11/10 06:59:28;;;;;;;18.50;10.90;;;;;;;9.79;93.60;101298.59;103342;1303;62711;-73
2022/11/10 07:01:55;;;;;;;17.30;10.10;;;;;;;9.81;93.70;101304.23;103416;1290;61107;-72
2022/11/10 07:04:21;;;;;;;18.30;10.10;;;;;;;9.84;93.51;101306.80;103692;1295;61319;-74
2022/11/10 07:06:48;;;;;;;19.40;11.00;;;;;;;9.85;93.76;101322.96;103538;1301;61355;-75
2022/11/10 07:09:14;;;;;;;21.20;10.50;;;;;;;9.90;93.63;101323.02;104829;1294;61189;-73
2022/11/10 07:11:41;;;;;;;17.10;9.20;;;;;;;9.93;93.36;101328.79;105451;1294;59056;-73
2022/11/10 07:14:09;;;;;;;19.50;10.30;;;;;;;9.96;93.15;101325.89;105379;1297;71706;-73
2022/11/10 07:16:35;;;;;;;20.30;9.70;;;;;;;9.99;92.98;101331.55;105330;1293;71122;-73
2022/11/10 07:19:02;;;;;;;17.10;9.70;;;;;;;10.02;92.89;101328.80;105424;1296;60480;-73
2022/11/10 07:21:28;;;;;;;23.60;9.90;;;;;;;10.06;92.72;101334.94;103910;1294;62022;-73
2022/11/10 07:23:55;;;;;;;15.40;8.40;;;;;;;10.11;92.72;101333.75;104371;1295;59340;-73
2022/11/10 07:26:21;;;;;;;20.20;9.90;;;;;;;10.15;92.53;101332.45;103602;1301;61302;-72
2022/11/10 07:28:47;;;;;;;22.00;10.00;;;;;;;10.20;92.52;101334.34;102622;1301;61423;-72
2022/11/10 07:31:14;;;;;;;19.10;10.60;;;;;;;10.27;92.44;101338.00;102282;1298;61407;-73
2022/11/10 07:33:42;;;;;;;14.20;8.40;;;;;;;10.33;92.10;101349.37;102559;1305;61951;-73
2022/11/10 07:36:09;;;;;;;20.00;10.10;;;;;;;10.38;92.02;101353.10;103089;1305;73199;-73
2022/11/10 07:38:35;;;;;;;19.80;10.50;;;;;;;10.45;91.92;101355.69;102642;1295;61309;-73
2022/11/10 07:41:02;;;;;;;19.50;9.90;;;;;;;10.53;91.69;101362.71;103645;1293;71094;-73
2022/11/10 07:43:29;;;;;;;14.00;8.60;;;;;;;10.60;91.42;101366.78;103425;1295;61365;-73
2022/11/10 07:45:55;;;;;;;17.10;9.70;;;;;;;10.65;91.02;101367.80;103450;1298;61373;-73
2022/11/10 07:48:21;;;;;;;15.60;9.10;;;;;;;10.72;90.54;101369.55;102783;1294;61404;-73
2022/11/10 07:50:49;;;;;;;17.10;9.30;;;;;;;10.80;90.25;101369.42;102916;1294;61384;-73
2022/11/10 07:53:21;;;;;;;16.00;9.00;;;;;;;10.87;90.01;101377.43;103038;1295;74246;-72
2022/11/10 07:55:48;;;;;;;16.30;8.70;;;;;;;10.90;89.50;101383.34;103028;1297;61682;-72
2022/11/10 07:58:16;;;;;;;14.50;8.90;;;;;;;10.94;89.19;101392.73;103631;1294;61242;-72
2022/11/10 08:00:45;;;;;;;14.40;8.00;;;;;;;10.99;88.89;101393.44;103879;1294;74587;-72
2022/11/10 08:03:14;;;;;;;14.90;8.90;;;;;;;11.06;88.70;101396.09;103766;1302;71153;-72
2022/11/10 08:05:42;;;;;;;16.50;8.60;;;;;;;11.08;88.31;101402.86;103655;1303;71299;-72
2022/11/10 08:08:09;;;;;;;16.50;8.20;;;;;;;11.14;88.16;101403.80;102733;1295;61732;-72
2022/11/10 08:10:36;;;;;;;19.70;8.80;;;;;;;11.21;88.09;101405.48;102836;1302;62185;-73
2022/11/10 08:13:05;;;;;;;17.50;8.90;;;;;;;11.27;87.91;101411.76;103514;1294;74879;-72
2022/11/10 08:15:33;;;;;;;18.70;9.10;;;;;;;11.35;87.68;101420.48;102410;1302;69572;-72
2022/11/10 08:18:02;;;;;;;12.30;7.90;;;;;;;11.40;87.25;101430.11;103096;1303;72495;-73
2022/11/10 08:20:29;;;;;;;22.50;8.50;;;;;;;11.47;87.06;101440.20;103336;1295;61355;-71
2022/11/10 08:23:01;;;;;;;13.90;7.00;;;;;;;11.52;86.81;101446.69;102747;1297;61880;-72
2022/11/10 08:25:30;;;;;;;15.30;7.40;;;;;;;11.60;86.59;101448.14;102723;1302;73959;-72
2022/11/10 08:28:20;;;;;;;17.30;7.40;;;;;;;11.68;86.22;101453.77;102628;1294;71209;-73
2022/11/10 08:30:48;;;;;;;14.70;6.70;;;;;;;11.73;85.45;101466.83;102735;1297;72462;-73
2022/11/10 08:33:17;;;;;;;14.30;6.80;;;;;;;11.80;85.22;101478.07;103176;1297;61332;-73
2022/11/10 08:35:49;;;;;;;14.10;6.10;;;;;;;11.91;84.71;101475.95;103026;1295;61310;-73
2022/11/10 08:38:18;;;;;;;14.90;5.90;;;;;;;12.01;83.88;101481.79;103853;1295;74490;-73
2022/11/10 08:40:45;;;;;;;12.10;6.10;;;;;;;12.16;83.64;101479.07;103130;1301;71173;-73
2022/11/10 08:43:13;;;;;;;15.40;6.30;;;;;;;12.32;82.72;101482.98;103044;1305;72778;-71
2022/11/10 08:45:41;;;;;;;12.00;5.60;;;;;;;12.44;82.17;101496.05;103113;1304;61366;-73
2022/11/10 08:48:10;;;;;;;11.70;5.40;;;;;;;12.51;80.98;101497.61;103107;1296;61251;-73
2022/11/10 08:50:38;;;;;;;12.20;5.90;;;;;;;12.50;80.57;101493.26;103569;1297;74454;-73
2022/11/10 08:53:13;;;;;;;13.50;6.00;;;;;;;12.47;80.80;101499.71;103718;1302;71038;-73
2022/11/10 08:55:40;;;;;;;13.70;5.80;;;;;;;12.44;81.28;101502.96;104128;1303;72427;-74
2022/11/10 08:58:12;;;;;;;14.10;5.90;;;;;;;12.40;81.44;101501.48;104899;1295;61232;-73
2022/11/10 09:00:39;;;;;;;13.80;5.90;;;;;;;12.39;81.51;101500.17;104797;1295;59216;-72
2022/11/10 09:03:20;;;;;;;13.30;6.10;;;;;;;12.44;81.46;101496.77;104818;1290;74143;-72
2022/11/10 09:05:49;;;;;;;13.40;5.40;;;;;;;12.52;81.27;101500.77;104958;1286;72180;-73
2022/11/10 09:08:23;;;;;;;12.80;6.10;;;;;;;12.55;80.24;101504.98;104895;1297;72787;-74
2022/11/10 09:10:50;;;;;;;14.40;5.80;;;;;;;12.62;80.40;101509.17;104777;1291;62253;-72
2022/11/10 09:13:17;;;;;;;11.70;5.50;;;;;;;12.66;80.20;101515.27;105092;1294;59188;-72
2022/11/10 09:15:44;;;;;;;12.00;5.40;;;;;;;12.63;79.32;101524.48;103777;1302;74005;-73
2022/11/10 09:18:12;;;;;;;13.70;5.20;;;;;;;12.62;79.02;101527.27;103692;1288;69932;-73
2022/11/10 09:20:39;;;;;;;9.50;4.70;;;;;;;12.65;78.97;101532.83;104440;1297;71778;-73
2022/11/10 09:23:08;;;;;;;13.00;5.60;;;;;;;12.72;79.32;101522.70;103421;1296;62602;-72
2022/11/10 09:25:35;;;;;;;11.30;4.70;;;;;;;12.78;78.89;101532.08;103060;1298;61337;-73
2022/11/10 09:28:02;;;;;;;15.00;5.10;;;;;;;12.77;77.97;101542.73;104305;1298;73470;-73
2022/11/10 09:30:29;;;;;;;12.60;5.70;;;;;;;12.76;77.77;101541.77;105001;1293;69984;-73
2022/11/10 09:32:57;;;;;;;12.60;5.10;;;;;;;12.80;77.60;101538.83;103598;1297;71492;-74
2022/11/10 09:35:25;;;;;;;11.00;4.40;;;;;;;12.87;77.25;101544.41;103048;1297;61399;-72
2022/11/10 09:37:51;;;;;;;8.50;4.50;;;;;;;12.88;76.35;101544.11;103668;1288;61427;-72
2022/11/10 09:40:22;;;;;;;13.40;4.70;;;;;;;12.97;76.20;101538.70;103544;1301;59031;-72
2022/11/10 09:42:54;;;;;;;9.10;4.40;;;;;;;13.08;75.68;101551.66;103423;1293;68553;-73
2022/11/10 09:45:49;;;;;;;10.40;4.20;;;;;;;13.14;75.15;101557.67;103259;1289;73926;-72
2022/11/10 09:48:33;;;;;;;12.00;4.00;;;;;;;13.17;74.74;101552.99;103688;1302;59699;-72
2022/11/10 09:51:11;;;;;;;13.50;4.60;;;;;;;13.19;74.79;101550.30;103873;1287;61516;-73
2022/11/10 09:53:47;;;;;;;12.10;4.60;;;;;;;13.23;74.78;101566.25;103808;1298;73368;-73
2022/11/10 09:56:20;;;;;;;11.70;3.70;;;;;;;13.26;74.35;101560.41;103363;1295;70203;-73
2022/11/10 09:58:47;;;;;;;13.40;4.20;;;;;;;13.23;74.02;101563.05;103422;1297;73365;-73
2022/11/10 10:01:37;;;;;;;10.90;4.00;;;;;;;13.30;74.05;101555.92;103059;1297;61306;-72
2022/11/10 10:04:29;;;;;;;11.30;4.20;;;;;;;13.35;73.49;101555.87;103025;1301;61145;-72
2022/11/10 10:07:09;;;;;;;10.80;3.60;;;;;;;13.35;73.29;101564.90;103787;1302;73350;-72
2022/11/10 10:09:51;;;;;;;8.60;3.50;;;;;;;13.30;73.25;101568.60;104052;1302;69371;-72
2022/11/10 10:12:24;;;;;;;8.20;3.50;;;;;;;13.31;73.04;101565.14;102927;1304;71524;-72
2022/11/10 10:14:56;;;;;;;10.30;3.50;;;;;;;13.33;72.93;101563.71;102903;1297;61861;-72
2022/11/10 10:17:50;;;;;;;12.00;3.90;;;;;;;13.32;72.73;101561.17;103191;1291;61412;-72
2022/11/10 10:20:23;;;;;;;9.80;4.10;;;;;;;13.28;72.92;101564.20;102360;1294;74510;-73
2022/11/10 10:23:05;;;;;;;10.80;3.70;;;;;;;13.26;72.99;101570.66;102541;1297;70515;-73
2022/11/10 10:25:32;;;;;;;12.00;3.30;;;;;;;13.32;72.63;101567.41;102781;1302;72406;-72
2022/11/10 10:28:22;;;;;;;10.90;3.40;;;;;;;13.37;72.53;101572.98;103509;1302;61655;-72
2022/11/10 10:30:50;;;;;;;12.40;4.00;;;;;;;13.47;72.90;101568.89;102833;1300;61342;-72
2022/11/10 10:33:21;;;;;;;11.70;3.30;;;;;;;13.53;72.59;101578.19;102220;1294;74376;-71
2022/11/10 10:35:49;;;;;;;12.20;3.10;;;;;;;13.58;72.36;101573.92;102841;1297;71398;-73
2022/11/10 10:38:24;;;;;;;10.30;3.50;;;;;;;13.63;72.27;101574.39;102599;1296;72594;-73
2022/11/10 10:40:55;;;;;;;11.40;3.60;;;;;;;13.68;72.09;101579.80;102644;1301;62024;-72
2022/11/10 10:43:22;;;;;;;9.20;3.00;;;;;;;13.73;71.89;101578.02;102267;1297;61853;-73
2022/11/10 10:46:06;;;;;;;12.30;3.80;;;;;;;13.84;71.86;101571.59;103921;1293;61219;-72
2022/11/10 10:48:32;;;;;;;8.80;2.80;;;;;;;13.93;71.25;101569.27;102955;1300;69951;-72
2022/11/10 10:50:59;;;;;;;10.50;2.80;;;;;;;13.93;71.10;101571.20;102583;1302;61375;-72
2022/11/10 10:53:25;;;;;;;11.40;3.10;;;;;;;13.92;70.93;101569.64;102617;1301;61311;-72
2022/11/10 10:55:59;;;;;;;11.10;2.90;;;;;;;13.91;70.66;101574.05;102828;1288;61145;-73
2022/11/10 10:58:34;;;;;;;10.00;2.40;;;;;;;13.93;70.41;101568.64;102691;1300;73004;-73
2022/11/10 11:01:20;;;;;;;10.90;2.70;;;;;;;14.02;70.01;101577.78;102575;1301;70837;-73
2022/11/10 11:03:51;;;;;;;11.70;3.10;;;;;;;14.26;69.72;101573.05;104347;1302;72806;-73
2022/11/10 11:06:27;;;;;;;11.30;2.70;;;;;;;14.30;69.11;101574.95;102812;1294;194043;-73
2022/11/10 11:08:57;;;;;;;15.90;3.30;;;;;;;14.40;68.68;101580.73;102329;1297;61279;-72
2022/11/10 11:11:30;;;;;;;7.40;2.20;;;;;;;14.60;68.22;101586.79;102712;1287;73158;-72
2022/11/10 11:14:13;;;;;;;10.60;2.50;;;;;;;14.72;67.62;101590.35;102925;1295;69521;-73
2022/11/10 11:16:52;;;;;;;9.20;2.40;;;;;;;14.90;66.37;101590.89;102623;1294;72843;-72
2022/11/10 11:19:22;;;;;;;9.40;2.60;;;;;;;15.16;65.78;101591.01;102359;1297;61396;-72
2022/11/10 11:21:54;;;;;;;10.40;2.50;;;;;;;15.32;65.24;101588.42;103982;1300;61279;-72
2022/11/10 11:24:36;;;;;;;8.60;2.30;;;;;;;15.38;64.74;101585.92;102747;1301;73971;-72
2022/11/10 11:27:11;;;;;;;10.50;2.80;;;;;;;15.45;64.12;101596.43;102436;1303;70846;-73
2022/11/10 11:29:53;;;;;;;12.10;2.30;;;;;;;15.76;63.13;101599.20;102636;1294;70698;-71
2022/11/10 11:33:04;;;;;;;9.10;2.20;;;;;;;15.90;61.96;101602.45;102559;1302;61253;-72
2022/11/10 11:36:00;;;;;;;10.60;2.10;;;;;;;16.22;60.56;101598.20;102332;1301;61838;-72